createdAt,value
2023-01-09T00:00:05.236Z,2.10
2023-01-09T00:21:02.403Z,1.47
2023-01-09T00:26:18.628Z,1.50
2023-01-09T00:31:22.659Z,1.13
2023-01-09T00:36:24.497Z,1.50
2023-01-09T00:41:45.808Z,1.50
2023-01-09T00:46:50.761Z,1.40
2023-01-09T00:51:55.093Z,1.40
2023-01-09T00:56:56.908Z,1.50
2023-01-09T01:02:01.944Z,1.90
2023-01-09T01:07:27.715Z,1.40
2023-01-09T01:12:31.758Z,1.30
2023-01-09T01:17:37.783Z,1.23
2023-01-09T01:22:42.497Z,1.33
2023-01-09T01:27:45.032Z,1.10
2023-01-09T01:32:49.197Z,1.33
2023-01-09T01:37:51.185Z,0.97
2023-01-09T01:42:54.032Z,1.13
2023-01-09T01:48:05.100Z,1.00
2023-01-09T01:53:34.054Z,0.80
2023-01-09T01:58:43.267Z,0.40
2023-01-09T02:03:49.670Z,0.60
2023-01-09T02:08:51.535Z,0.50
2023-01-09T02:13:58.131Z,0.67
2023-01-09T02:19:37.301Z,0.50
2023-01-09T02:25:03.472Z,0.53
2023-01-09T02:30:42.381Z,0.40
2023-01-09T02:35:59.518Z,0.50
2023-01-09T02:41:22.855Z,0.40
2023-01-09T02:46:24.541Z,0.50
2023-01-09T02:52:19.932Z,0.30
2023-01-09T02:57:50.215Z,0.20
2023-01-09T03:03:06.171Z,0.40
2023-01-09T03:08:13.375Z,0.30
2023-01-09T03:13:18.131Z,0.20
2023-01-09T03:18:24.260Z,0.40
2023-01-09T03:23:26.001Z,0.50
2023-01-09T03:28:29.051Z,0.50
2023-01-09T03:33:30.698Z,0.93
2023-01-09T03:38:35.646Z,1.43
2023-01-09T03:43:38.018Z,1.67
2023-01-09T03:48:44.398Z,1.47
2023-01-09T03:53:51.332Z,1.93
2023-01-09T03:58:53.597Z,2.13
2023-01-09T04:03:55.388Z,2.83
2023-01-09T04:08:57.191Z,2.60
2023-01-09T04:13:58.953Z,2.63
2023-01-09T04:19:00.966Z,2.80
2023-01-09T04:24:13.497Z,2.77
2023-01-09T04:29:15.490Z,3.30
2023-01-09T04:34:37.381Z,3.50
2023-01-09T04:39:42.989Z,3.70
2023-01-09T04:44:44.726Z,4.93
2023-01-09T04:49:46.445Z,5.77
2023-01-09T04:54:48.249Z,7.20
2023-01-09T04:59:51.631Z,6.03
2023-01-09T05:04:53.892Z,6.33
2023-01-09T05:09:55.676Z,5.93
2023-01-09T05:14:57.982Z,5.57
2023-01-09T05:20:01.047Z,5.67
2023-01-09T05:25:02.833Z,5.83
2023-01-09T05:30:05.301Z,5.73
2023-01-09T05:35:11.197Z,5.23
2023-01-09T05:40:13.503Z,5.57
2023-01-09T05:45:15.662Z,5.13
2023-01-09T05:50:17.650Z,6.37
2023-01-09T05:55:19.703Z,7.10
2023-01-09T06:00:21.637Z,8.67
2023-01-09T06:05:23.361Z,9.93
2023-01-09T06:10:25.179Z,7.23
2023-01-09T06:15:27.011Z,6.50
2023-01-09T06:20:28.666Z,5.53
2023-01-09T06:25:30.333Z,4.20
2023-01-09T06:30:32.043Z,4.00
2023-01-09T06:35:33.847Z,4.40
2023-01-09T06:40:35.519Z,3.57
2023-01-09T06:45:37.195Z,3.37
2023-01-09T06:50:39.059Z,3.30
2023-01-09T06:55:40.700Z,3.70
2023-01-09T07:00:42.889Z,3.30
2023-01-09T07:05:44.567Z,2.80
2023-01-09T07:10:46.390Z,3.43
2023-01-09T07:15:49.990Z,3.73
2023-01-09T07:20:51.747Z,3.07
2023-01-09T07:25:54.105Z,3.17
2023-01-09T07:30:55.942Z,3.97
2023-01-09T07:35:57.656Z,3.10
2023-01-09T07:40:59.374Z,3.17
2023-01-09T07:46:01.103Z,3.67
2023-01-09T07:51:02.899Z,2.90
2023-01-09T07:56:04.865Z,2.00
2023-01-09T08:01:06.981Z,2.70
2023-01-09T08:06:10.176Z,1.73
2023-01-09T08:11:11.933Z,2.87
2023-01-09T08:16:13.631Z,2.43
2023-01-09T08:21:15.364Z,2.40
2023-01-09T08:26:17.134Z,2.20
2023-01-09T08:31:18.972Z,2.00
2023-01-09T08:36:20.842Z,2.77
2023-01-09T08:41:41.422Z,2.13
2023-01-09T08:47:01.852Z,1.27
2023-01-09T08:52:04.820Z,1.37
2023-01-09T08:57:07.557Z,1.60
2023-01-09T09:02:09.727Z,1.60
2023-01-09T09:07:11.349Z,1.00
2023-01-09T09:12:12.955Z,1.00
2023-01-09T09:17:14.729Z,0.93
2023-01-09T09:22:16.369Z,1.20
2023-01-09T09:27:18.064Z,0.87
2023-01-09T09:32:19.688Z,1.17
2023-01-09T09:37:21.315Z,0.90
2023-01-09T09:43:03.170Z,1.17
2023-01-09T09:48:12.223Z,0.80
2023-01-09T09:53:32.022Z,1.57
2023-01-09T09:58:41.714Z,1.40
2023-01-09T10:03:51.635Z,1.83
2023-01-09T10:09:30.597Z,1.70
2023-01-09T10:14:32.433Z,1.23
2023-01-09T10:19:47.866Z,1.53
2023-01-09T10:25:28.746Z,1.87
2023-01-09T10:30:42.356Z,1.60
2023-01-09T10:35:52.718Z,1.50
2023-01-09T10:41:16.010Z,1.37
2023-01-09T10:46:25.881Z,1.80
2023-01-09T10:51:37.308Z,1.17
2023-01-09T10:56:41.195Z,0.77
2023-01-09T11:01:43.349Z,1.10
2023-01-09T11:06:47.970Z,0.73
2023-01-09T11:11:51.968Z,1.30
2023-01-09T11:16:56.394Z,1.10
2023-01-09T11:22:07.570Z,1.67
2023-01-09T11:27:23.584Z,1.50
2023-01-09T11:32:33.196Z,1.93
2023-01-09T11:37:34.901Z,2.50
2023-01-09T11:42:52.103Z,1.13
2023-01-09T11:47:53.955Z,1.67
2023-01-09T11:53:16.950Z,1.73
2023-01-09T11:58:21.830Z,1.77
2023-01-09T12:03:51.242Z,2.10
2023-01-09T12:09:16.128Z,1.83
2023-01-09T12:14:34.231Z,1.87
2023-01-09T12:20:04.561Z,1.63
2023-01-09T12:25:18.395Z,1.60
2023-01-09T12:30:33.604Z,2.17
2023-01-09T12:36:10.849Z,1.90
2023-01-09T12:41:28.954Z,3.03
2023-01-09T12:47:10.076Z,2.30
2023-01-09T12:52:20.661Z,2.20
2023-01-09T12:57:36.009Z,3.00
2023-01-09T13:02:44.255Z,2.23
2023-01-09T13:07:49.689Z,2.53
2023-01-09T13:12:52.304Z,3.23
2023-01-09T13:18:00.539Z,2.47
2023-01-09T13:23:03.106Z,3.23
2023-01-09T13:28:29.098Z,2.50
2023-01-09T13:33:33.854Z,2.43
2023-01-09T13:38:38.686Z,2.70
2023-01-09T13:44:28.903Z,2.17
2023-01-09T13:49:34.622Z,2.73
2023-01-09T13:54:58.232Z,2.97
2023-01-09T14:00:19.913Z,3.00
2023-01-09T14:05:24.559Z,3.57
2023-01-09T14:10:30.430Z,3.73
2023-01-09T14:15:40.445Z,3.27
2023-01-09T14:21:03.949Z,2.83
2023-01-09T14:26:06.387Z,3.43
2023-01-09T14:31:09.223Z,3.33
2023-01-09T14:36:29.177Z,3.50
2023-01-09T14:41:56.796Z,3.37
2023-01-09T14:47:19.974Z,3.80
2023-01-09T14:52:28.188Z,3.67
2023-01-09T14:57:32.311Z,4.20
2023-01-09T15:02:36.914Z,3.83
2023-01-09T15:07:46.645Z,4.07
2023-01-09T15:12:50.499Z,5.43
2023-01-09T15:18:02.136Z,5.23
2023-01-09T15:23:05.409Z,6.00
2023-01-09T15:28:22.799Z,6.30
2023-01-09T15:33:24.432Z,6.13
2023-01-09T15:38:27.751Z,5.60
2023-01-09T15:43:30.366Z,6.17
2023-01-09T15:48:34.148Z,5.93
2023-01-09T15:53:36.270Z,5.63
2023-01-09T15:58:47.195Z,6.73
2023-01-09T16:03:48.980Z,6.50
2023-01-09T16:08:53.643Z,7.63
2023-01-09T16:13:58.569Z,7.47
2023-01-09T16:19:00.637Z,5.53
2023-01-09T16:24:05.885Z,5.07
2023-01-09T16:29:36.098Z,7.83
2023-01-09T16:34:42.441Z,8.77
2023-01-09T16:40:01.153Z,2.23
2023-01-09T16:45:05.544Z,1.43
2023-01-09T16:50:13.547Z,1.70
2023-01-09T16:55:15.327Z,2.07
2023-01-09T17:00:20.212Z,1.13
2023-01-09T17:05:24.480Z,1.87
2023-01-09T17:10:26.238Z,1.30
2023-01-09T17:15:33.767Z,1.50
2023-01-09T17:20:40.372Z,1.70
2023-01-09T17:26:11.434Z,1.70
2023-01-09T17:31:13.408Z,2.50
2023-01-09T17:36:41.686Z,2.80
2023-01-09T17:41:47.154Z,2.80
2023-01-09T17:52:01.404Z,5.87
2023-01-09T17:57:05.471Z,8.07
2023-01-09T18:02:25.566Z,8.63
2023-01-09T18:07:27.895Z,8.03
2023-01-09T18:12:29.708Z,9.17
2023-01-09T18:17:31.769Z,8.67
2023-01-09T18:22:40.276Z,9.27
2023-01-09T18:27:42.099Z,10.30
2023-01-09T18:33:07.659Z,9.23
2023-01-09T18:38:58.268Z,9.80
2023-01-09T18:44:05.608Z,9.60
2023-01-09T18:54:57.613Z,6.47
2023-01-09T19:00:01.843Z,4.70
2023-01-09T19:05:04.013Z,3.27
2023-01-09T19:16:02.253Z,4.00
2023-01-09T19:27:07.814Z,4.93
2023-01-09T19:32:09.868Z,6.10
2023-01-09T19:37:18.477Z,7.20
2023-01-09T19:42:20.190Z,8.27
2023-01-09T19:47:21.919Z,8.43
2023-01-09T19:52:23.865Z,9.60
2023-01-09T20:02:35.562Z,9.43
2023-01-09T20:07:37.380Z,9.33
2023-01-09T20:12:39.466Z,9.73
2023-01-09T20:17:42.064Z,10.40
2023-01-09T20:22:43.793Z,10.47
2023-01-09T20:27:55.549Z,9.40
2023-01-09T20:32:59.362Z,8.60
2023-01-09T20:38:02.356Z,8.83
2023-01-09T20:43:05.161Z,8.67
2023-01-09T20:48:08.024Z,8.20
2023-01-09T20:53:09.619Z,8.80
2023-01-09T21:03:34.912Z,9.73
2023-01-09T21:08:37.426Z,9.23
2023-01-09T21:13:39.411Z,10.30
2023-01-09T21:40:30.777Z,13.00
2023-01-09T22:17:23.906Z,12.87
2023-01-09T22:27:55.730Z,11.33
2023-01-09T22:38:20.740Z,11.70
2023-01-09T22:43:22.570Z,11.97
2023-01-09T22:48:24.941Z,11.07
2023-01-09T22:53:26.673Z,7.60
2023-01-09T22:58:30.535Z,6.00
2023-01-09T23:03:32.538Z,4.77
2023-01-09T23:08:34.592Z,3.70
2023-01-09T23:13:36.764Z,4.40
2023-01-09T23:29:47.909Z,2.27
2023-01-09T23:34:49.872Z,3.20
2023-01-09T23:39:54.448Z,2.37
2023-01-09T23:45:31.294Z,2.47
2023-01-09T23:50:33.514Z,2.93
2023-01-09T23:55:37.047Z,14.67
